Time;durP1;ratioP1;P1;durP2;ratioP2;P2;SDS_P1;SDS_P2;PMS_P1;PMS_P2;Temp;Humidity;BMP_temperature;BMP_pressure;BME280_temperature;BME280_humidity;BME280_pressure;Samples;Min_cycle;Max_cycle;Signal;HPM_P1;HPM_P2
2021/05/15 00:00:23;;;;;;;43.05;25.75;;;;;;;;;;5073341;28;20056;-48
2021/05/15 00:02:50;;;;;;;20.20;11.15;;;;;;;;;;5073134;28;20082;-48
2021/05/15 00:05:16;;;;;;;14.85;9.48;;;;;;;;;;5073274;28;20489;-48
2021/05/15 00:07:42;;;;;;;6.57;3.85;;;;;;;;;;5073256;28;20036;-48
2021/05/15 00:10:08;;;;;;;25.98;15.32;;;;;;;;;;5073698;28;20067;-48
2021/05/15 00:12:34;;;;;;;30.23;18.45;;;;;;;;;;5077089;28;20056;-48
2021/05/15 00:15:02;;;;;;;15.40;10.07;;;;;;;;;;5077277;28;20024;-48
2021/05/15 00:17:29;;;;;;;5.40;4.15;;;;;;;;;;5077197;28;20025;-48
2021/05/15 00:19:55;;;;;;;6.50;4.07;;;;;;;;;;5077023;28;20545;-48
2021/05/15 00:22:21;;;;;;;6.55;3.15;;;;;;;;;;5077136;28;20037;-48
2021/05/15 00:24:47;;;;;;;27.58;14.68;;;;;;;;;;5076971;28;20017;-47
2021/05/15 00:27:13;;;;;;;14.43;9.73;;;;;;;;;;5077031;28;20487;-47
2021/05/15 00:29:39;;;;;;;23.17;13.18;;;;;;;;;;5077381;28;20027;-48
2021/05/15 00:32:05;;;;;;;9.57;4.55;;;;;;;;;;5076963;28;20056;-48
2021/05/15 00:34:31;;;;;;;17.23;9.80;;;;;;;;;;5076682;28;20020;-48
2021/05/15 00:36:57;;;;;;;22.23;13.63;;;;;;;;;;5076736;28;20465;-46
2021/05/15 00:39:23;;;;;;;50.25;27.00;;;;;;;;;;5076914;28;20050;-48
2021/05/15 00:41:50;;;;;;;42.13;25.10;;;;;;;;;;5076457;28;20024;-49
2021/05/15 00:46:51;;;;;;;33.22;20.67;;;;;;;;;;5076569;28;20037;-49
2021/05/15 00:49:17;;;;;;;16.35;8.05;;;;;;;;;;5076407;28;20496;-49
2021/05/15 00:51:43;;;;;;;10.85;6.00;;;;;;;;;;5076459;28;20150;-47
2021/05/15 00:54:13;;;;;;;16.98;9.82;;;;;;;;;;5076400;28;20412;-47
2021/05/15 00:56:39;;;;;;;41.03;21.95;;;;;;;;;;5076414;28;20024;-49
2021/05/15 00:59:05;;;;;;;40.45;22.77;;;;;;;;;;5091952;28;20443;-48
2021/05/15 01:01:32;;;;;;;15.45;8.25;;;;;;;;;;5076215;28;20027;-48
2021/05/15 01:04:00;;;;;;;23.05;12.05;;;;;;;;;;5076718;28;20464;-49
2021/05/15 01:06:26;;;;;;;11.93;7.50;;;;;;;;;;5076225;28;20017;-48
2021/05/15 01:08:53;;;;;;;25.13;16.30;;;;;;;;;;5076246;28;20128;-47
2021/05/15 01:11:20;;;;;;;22.55;14.80;;;;;;;;;;5075923;28;20561;-48
2021/05/15 01:13:53;;;;;;;22.92;12.05;;;;;;;;;;5076207;28;20123;-47
2021/05/15 01:16:20;;;;;;;10.52;6.40;;;;;;;;;;5076141;28;20387;-46
2021/05/15 01:18:46;;;;;;;8.57;4.78;;;;;;;;;;5075929;28;20059;-48
2021/05/15 01:21:15;;;;;;;30.55;17.17;;;;;;;;;;5075905;28;20418;-48
2021/05/15 01:23:41;;;;;;;17.30;11.07;;;;;;;;;;5075838;28;20031;-49
2021/05/15 01:26:17;;;;;;;21.92;13.95;;;;;;;;;;5075966;28;20492;-48
2021/05/15 01:28:46;;;;;;;17.30;9.40;;;;;;;;;;5075818;28;20050;-45
2021/05/15 01:31:15;;;;;;;11.82;5.80;;;;;;;;;;5075674;28;20021;-50
2021/05/15 01:33:41;;;;;;;16.80;8.98;;;;;;;;;;5091339;28;20376;-47
2021/05/15 01:36:08;;;;;;;28.20;11.82;;;;;;;;;;5075712;28;20020;-48
2021/05/15 01:38:36;;;;;;;10.18;5.60;;;;;;;;;;5076039;28;20021;-46
2021/05/15 01:41:03;;;;;;;22.75;11.98;;;;;;;;;;5075805;28;20050;-46
2021/05/15 01:43:29;;;;;;;11.75;7.13;;;;;;;;;;5075708;28;20045;-47
2021/05/15 01:45:55;;;;;;;25.55;14.85;;;;;;;;;;5075397;28;20149;-48
2021/05/15 01:48:21;;;;;;;13.68;6.38;;;;;;;;;;5075518;28;20082;-45
2021/05/15 01:51:06;;;;;;;13.35;5.43;;;;;;;;;;5075496;28;20430;-46
2021/05/15 01:53:37;;;;;;;13.65;6.10;;;;;;;;;;5075584;28;20025;-48
2021/05/15 01:56:06;;;;;;;27.08;16.25;;;;;;;;;;5075401;28;20098;-48
2021/05/15 01:58:32;;;;;;;9.38;5.78;;;;;;;;;;5075208;28;20052;-48
2021/05/15 02:00:58;;;;;;;15.45;5.22;;;;;;;;;;5075132;28;20377;-48
2021/05/15 02:03:25;;;;;;;6.97;4.40;;;;;;;;;;5075294;28;20032;-47
2021/05/15 02:05:52;;;;;;;8.70;4.72;;;;;;;;;;5074996;28;20476;-45
2021/05/15 02:08:18;;;;;;;9.25;6.97;;;;;;;;;;5075024;28;20041;-47
2021/05/15 02:10:44;;;;;;;12.82;8.63;;;;;;;;;;5074942;28;20035;-48
2021/05/15 02:13:13;;;;;;;11.60;4.65;;;;;;;;;;5075066;28;20140;-46
2021/05/15 02:15:39;;;;;;;8.95;5.07;;;;;;;;;;5075126;28;20055;-45
2021/05/15 02:18:06;;;;;;;6.80;4.53;;;;;;;;;;5075032;28;20048;-46
2021/05/15 02:20:33;;;;;;;8.57;4.38;;;;;;;;;;5074903;28;20032;-50
2021/05/15 02:22:59;;;;;;;8.10;4.88;;;;;;;;;;5074950;28;20029;-49
2021/05/15 02:25:26;;;;;;;9.90;5.53;;;;;;;;;;5075213;28;20017;-47
2021/05/15 02:27:52;;;;;;;41.13;24.23;;;;;;;;;;5074576;28;20457;-46
2021/05/15 02:30:19;;;;;;;24.58;14.05;;;;;;;;;;5074556;28;20037;-50
2021/05/15 02:32:45;;;;;;;18.35;10.57;;;;;;;;;;5073990;28;20388;-47
2021/05/15 02:35:12;;;;;;;17.40;12.00;;;;;;;;;;5074722;28;20059;-46
2021/05/15 02:37:38;;;;;;;16.92;9.85;;;;;;;;;;5074453;28;20053;-48
2021/05/15 02:40:05;;;;;;;13.32;8.43;;;;;;;;;;5074443;28;20031;-46
2021/05/15 02:42:31;;;;;;;13.60;7.18;;;;;;;;;;5074312;28;20531;-44
2021/05/15 02:44:57;;;;;;;14.40;7.60;;;;;;;;;;5074399;28;20040;-48
2021/05/15 02:47:28;;;;;;;16.65;9.52;;;;;;;;;;5074484;28;20024;-49
2021/05/15 02:49:54;;;;;;;11.55;7.55;;;;;;;;;;5074278;28;20141;-50
2021/05/15 02:52:20;;;;;;;13.48;8.65;;;;;;;;;;5074226;28;20056;-49
2021/05/15 02:54:48;;;;;;;11.75;7.10;;;;;;;;;;5074289;28;20082;-49
2021/05/15 02:57:14;;;;;;;13.93;7.18;;;;;;;;;;5089669;28;20040;-49
2021/05/15 02:59:41;;;;;;;11.77;7.15;;;;;;;;;;5074076;28;20533;-48
2021/05/15 03:02:07;;;;;;;12.40;7.70;;;;;;;;;;5073976;28;20116;-44
2021/05/15 03:04:33;;;;;;;11.30;6.40;;;;;;;;;;5074217;28;20028;-46
2021/05/15 03:06:59;;;;;;;11.13;6.28;;;;;;;;;;5073905;28;20029;-48
2021/05/15 03:09:25;;;;;;;15.88;6.72;;;;;;;;;;5074078;28;20522;-48
2021/05/15 03:11:52;;;;;;;10.60;6.07;;;;;;;;;;5089183;28;20060;-46
2021/05/15 03:14:18;;;;;;;10.52;6.65;;;;;;;;;;5073954;28;20078;-47
2021/05/15 03:16:44;;;;;;;9.25;6.93;;;;;;;;;;5074020;28;20021;-48
2021/05/15 03:19:11;;;;;;;12.32;6.97;;;;;;;;;;5073947;28;20021;-46
2021/05/15 03:21:37;;;;;;;14.82;7.18;;;;;;;;;;5073884;28;20028;-48
2021/05/15 03:24:03;;;;;;;11.73;6.13;;;;;;;;;;5073664;28;20036;-48
2021/05/15 03:26:29;;;;;;;12.90;7.40;;;;;;;;;;5073601;28;20028;-45
2021/05/15 03:28:55;;;;;;;11.05;7.57;;;;;;;;;;5073692;28;20058;-49
2021/05/15 03:31:21;;;;;;;17.15;7.88;;;;;;;;;;5073749;28;20059;-47
2021/05/15 03:33:47;;;;;;;13.88;8.77;;;;;;;;;;5073660;28;20421;-48
2021/05/15 03:36:13;;;;;;;18.05;7.78;;;;;;;;;;5073559;28;20024;-47
2021/05/15 03:38:39;;;;;;;13.77;7.85;;;;;;;;;;5073613;28;20060;-48
2021/05/15 03:41:05;;;;;;;46.25;32.63;;;;;;;;;;5073682;28;20035;-48
2021/05/15 03:43:32;;;;;;;40.83;30.95;;;;;;;;;;5073496;28;20131;-44
2021/05/15 03:45:58;;;;;;;31.10;23.42;;;;;;;;;;5072596;28;20095;-46
2021/05/15 03:48:24;;;;;;;19.20;10.15;;;;;;;;;;5073531;28;20446;-48
2021/05/15 03:50:51;;;;;;;8.80;6.15;;;;;;;;;;5073178;28;20023;-48
2021/05/15 03:53:17;;;;;;;7.80;5.65;;;;;;;;;;5073365;28;20033;-47
2021/05/15 03:55:43;;;;;;;19.77;7.60;;;;;;;;;;5073350;28;20020;-47
2021/05/15 03:58:10;;;;;;;10.75;6.00;;;;;;;;;;5073241;28;20472;-49
2021/05/15 04:00:37;;;;;;;7.50;6.78;;;;;;;;;;5073535;28;20346;-49
2021/05/15 04:03:03;;;;;;;11.60;6.90;;;;;;;;;;5073109;28;20043;-47
2021/05/15 04:05:29;;;;;;;12.43;6.97;;;;;;;;;;5073339;28;20431;-45
2021/05/15 04:07:57;;;;;;;9.63;6.55;;;;;;;;;;5073090;28;20530;-49
2021/05/15 04:10:24;;;;;;;12.13;7.35;;;;;;;;;;5073164;28;20025;-47
2021/05/15 04:18:08;;;;;;;9.85;6.93;;;;;;;;;;5073458;28;20058;-48
2021/05/15 04:20:35;;;;;;;10.75;7.05;;;;;;;;;;5088606;28;20025;-48
2021/05/15 04:23:01;;;;;;;9.75;6.93;;;;;;;;;;5072953;28;20033;-46
2021/05/15 04:25:27;;;;;;;7.45;6.63;;;;;;;;;;5073141;28;20056;-45
2021/05/15 04:27:54;;;;;;;15.73;6.43;;;;;;;;;;5072973;28;20051;-47
2021/05/15 04:30:20;;;;;;;8.05;6.10;;;;;;;;;;5073153;28;20104;-47
2021/05/15 04:32:46;;;;;;;8.85;6.38;;;;;;;;;;5072845;28;20079;-48
2021/05/15 04:35:12;;;;;;;9.93;6.53;;;;;;;;;;5073043;28;20043;-48
2021/05/15 04:37:38;;;;;;;10.45;6.38;;;;;;;;;;5072900;28;20438;-47
2021/05/15 04:40:05;;;;;;;18.10;7.32;;;;;;;;;;5072893;28;20029;-48
2021/05/15 04:42:32;;;;;;;24.63;13.13;;;;;;;;;;5072633;28;20041;-47
2021/05/15 04:44:58;;;;;;;55.38;25.92;;;;;;;;;;5073027;28;20024;-47
2021/05/15 04:47:24;;;;;;;78.53;32.70;;;;;;;;;;5072914;28;20475;-48
2021/05/15 04:49:50;;;;;;;46.58;19.48;;;;;;;;;;5072900;28;20056;-49
2021/05/15 04:52:16;;;;;;;32.22;11.90;;;;;;;;;;5072694;28;20024;-49
2021/05/15 04:54:44;;;;;;;22.55;9.30;;;;;;;;;;5072798;28;20025;-48
2021/05/15 04:57:10;;;;;;;7.72;5.50;;;;;;;;;;5074981;28;20024;-47
2021/05/15 04:59:37;;;;;;;12.40;5.47;;;;;;;;;;5076540;28;20029;-48
2021/05/15 05:02:03;;;;;;;11.23;4.97;;;;;;;;;;5076303;28;20107;-49
2021/05/15 05:04:29;;;;;;;10.68;4.68;;;;;;;;;;5076464;28;20039;-49
2021/05/15 05:06:57;;;;;;;8.27;4.20;;;;;;;;;;5076063;28;20104;-46
2021/05/15 05:09:23;;;;;;;13.55;4.45;;;;;;;;;;5076247;28;20024;-49
2021/05/15 05:11:50;;;;;;;8.60;5.18;;;;;;;;;;5076052;28;20048;-49
2021/05/15 05:14:16;;;;;;;7.25;3.97;;;;;;;;;;5076029;28;20112;-50
2021/05/15 05:16:42;;;;;;;4.82;3.72;;;;;;;;;;5076239;28;20053;-49
2021/05/15 05:19:11;;;;;;;6.47;3.80;;;;;;;;;;5076144;28;20027;-47
2021/05/15 05:21:37;;;;;;;6.47;4.50;;;;;;;;;;5076242;28;20483;-46
2021/05/15 05:24:04;;;;;;;9.07;4.10;;;;;;;;;;5075808;28;20044;-49
2021/05/15 05:26:34;;;;;;;7.68;3.67;;;;;;;;;;5075917;28;20020;-49
2021/05/15 05:29:04;;;;;;;6.90;3.90;;;;;;;;;;5075987;28;20029;-50
2021/05/15 05:31:30;;;;;;;6.35;3.90;;;;;;;;;;5075854;28;20392;-50
2021/05/15 05:33:57;;;;;;;4.72;2.88;;;;;;;;;;5075786;28;20016;-49
2021/05/15 05:36:23;;;;;;;3.33;3.03;;;;;;;;;;5075565;28;20032;-50
2021/05/15 05:38:49;;;;;;;4.50;2.38;;;;;;;;;;5075648;28;20109;-48
2021/05/15 05:41:15;;;;;;;3.92;2.40;;;;;;;;;;5091393;28;20036;-48
2021/05/15 05:43:42;;;;;;;4.43;2.60;;;;;;;;;;5075378;28;20044;-45
2021/05/15 05:46:08;;;;;;;4.13;2.80;;;;;;;;;;5075539;28;20020;-49
2021/05/15 05:48:34;;;;;;;4.60;2.78;;;;;;;;;;5075573;28;20029;-47
2021/05/15 05:51:00;;;;;;;3.08;2.67;;;;;;;;;;5075845;28;20082;-46
2021/05/15 05:53:26;;;;;;;11.95;6.45;;;;;;;;;;5075299;28;20028;-49
2021/05/15 05:55:52;;;;;;;18.48;13.02;;;;;;;;;;5075872;28;20477;-48
2021/05/15 05:58:18;;;;;;;14.25;9.50;;;;;;;;;;5075535;28;20020;-50
2021/05/15 06:00:44;;;;;;;10.65;6.10;;;;;;;;;;5075460;28;20017;-50
2021/05/15 06:03:10;;;;;;;9.93;5.70;;;;;;;;;;5075150;28;20036;-49
2021/05/15 06:05:36;;;;;;;10.57;3.20;;;;;;;;;;5075212;28;20021;-49
2021/05/15 06:08:08;;;;;;;7.38;3.28;;;;;;;;;;5073966;28;20020;-48
2021/05/15 06:10:35;;;;;;;9.27;2.05;;;;;;;;;;5074987;28;20032;-50
2021/05/15 06:13:02;;;;;;;10.98;3.50;;;;;;;;;;5075103;28;20037;-49
2021/05/15 06:15:28;;;;;;;4.53;2.33;;;;;;;;;;5074857;28;20021;-49
2021/05/15 06:17:54;;;;;;;10.07;2.63;;;;;;;;;;5075004;28;20025;-48
2021/05/15 06:20:21;;;;;;;7.55;2.83;;;;;;;;;;5074750;28;20480;-49
2021/05/15 06:22:47;;;;;;;7.93;2.20;;;;;;;;;;5074776;28;20559;-47
2021/05/15 06:25:13;;;;;;;3.00;2.45;;;;;;;;;;5074567;28;20099;-47
2021/05/15 06:27:39;;;;;;;3.22;2.30;;;;;;;;;;5090363;28;20111;-48
2021/05/15 06:30:06;;;;;;;3.85;2.60;;;;;;;;;;5074736;28;20029;-49
2021/05/15 06:32:32;;;;;;;5.75;2.58;;;;;;;;;;5074979;28;20025;-49
2021/05/15 06:34:58;;;;;;;11.65;6.22;;;;;;;;;;5074824;28;20060;-48
2021/05/15 06:37:24;;;;;;;5.82;3.00;;;;;;;;;;5074498;28;20020;-49
2021/05/15 06:39:50;;;;;;;5.82;3.45;;;;;;;;;;5074662;28;20033;-48
2021/05/15 06:42:16;;;;;;;4.40;3.20;;;;;;;;;;5074673;28;20198;-48
2021/05/15 06:44:42;;;;;;;8.23;4.30;;;;;;;;;;5074338;28;20028;-52
2021/05/15 06:47:11;;;;;;;4.97;3.10;;;;;;;;;;5074382;28;20021;-48
2021/05/15 06:49:37;;;;;;;6.38;3.33;;;;;;;;;;5074388;28;20388;-50
2021/05/15 06:52:06;;;;;;;4.35;3.33;;;;;;;;;;5074152;28;20017;-49
2021/05/15 06:54:32;;;;;;;4.15;3.45;;;;;;;;;;5074285;28;20054;-48
2021/05/15 06:56:58;;;;;;;6.60;4.63;;;;;;;;;;5074260;28;20048;-47
2021/05/15 06:59:24;;;;;;;6.18;3.30;;;;;;;;;;5074013;28;20052;-49
2021/05/15 07:01:50;;;;;;;12.75;3.38;;;;;;;;;;5074192;28;20040;-47
2021/05/15 07:04:16;;;;;;;6.45;3.17;;;;;;;;;;5074270;28;20115;-48
2021/05/15 07:06:44;;;;;;;12.35;6.50;;;;;;;;;;5074160;28;20502;-49
2021/05/15 07:09:10;;;;;;;7.50;5.28;;;;;;;;;;5073853;28;20032;-48
2021/05/15 07:11:36;;;;;;;3.00;2.70;;;;;;;;;;5073593;28;20516;-49
2021/05/15 07:14:03;;;;;;;6.38;2.92;;;;;;;;;;5073759;28;20021;-49
2021/05/15 07:16:29;;;;;;;6.38;3.15;;;;;;;;;;5073874;28;20028;-50
2021/05/15 07:18:55;;;;;;;5.80;4.05;;;;;;;;;;5073550;28;20029;-50
2021/05/15 07:21:21;;;;;;;4.18;2.97;;;;;;;;;;5073744;28;20499;-50
2021/05/15 07:23:47;;;;;;;7.28;2.78;;;;;;;;;;5073618;28;20059;-50
2021/05/15 07:26:13;;;;;;;7.03;4.72;;;;;;;;;;5073473;28;20012;-50
2021/05/15 07:28:39;;;;;;;4.55;2.55;;;;;;;;;;5073673;28;20035;-49
2021/05/15 07:31:06;;;;;;;3.90;2.40;;;;;;;;;;5073751;28;20491;-48
2021/05/15 07:33:32;;;;;;;1.83;1.65;;;;;;;;;;5073688;28;20051;-49
2021/05/15 07:35:58;;;;;;;3.53;2.25;;;;;;;;;;5073879;28;20384;-49
2021/05/15 07:38:26;;;;;;;3.65;2.47;;;;;;;;;;5073431;28;20361;-48
2021/05/15 07:40:52;;;;;;;3.55;2.10;;;;;;;;;;5073568;28;20021;-47
2021/05/15 07:43:23;;;;;;;4.75;2.72;;;;;;;;;;5073391;28;20064;-49
2021/05/15 07:45:50;;;;;;;4.53;3.15;;;;;;;;;;5073424;28;20023;-49
2021/05/15 07:48:28;;;;;;;5.03;3.05;;;;;;;;;;5073432;28;20024;-48
2021/05/15 07:50:54;;;;;;;5.13;3.22;;;;;;;;;;5089018;28;20052;-49
2021/05/15 07:53:20;;;;;;;3.75;3.45;;;;;;;;;;5073226;28;20099;-47
2021/05/15 07:55:47;;;;;;;12.95;9.40;;;;;;;;;;5073221;28;20043;-48
2021/05/15 07:58:13;;;;;;;18.90;11.10;;;;;;;;;;5081345;28;20057;-47
2021/05/15 08:00:39;;;;;;;31.27;18.98;;;;;;;;;;5092845;28;20023;-47
2021/05/15 08:03:05;;;;;;;28.95;20.20;;;;;;;;;;5093158;28;20034;-48
2021/05/15 08:05:31;;;;;;;44.20;26.88;;;;;;;;;;5092837;28;20016;-47
2021/05/15 08:07:57;;;;;;;21.65;13.60;;;;;;;;;;5092669;28;20029;-47
2021/05/15 08:10:23;;;;;;;45.00;29.92;;;;;;;;;;5092669;28;20021;-46
2021/05/15 08:12:49;;;;;;;62.08;36.38;;;;;;;;;;5091526;28;20044;-45
2021/05/15 08:15:15;;;;;;;10.52;7.75;;;;;;;;;;5091719;28;20025;-46
2021/05/15 08:17:41;;;;;;;59.83;39.35;;;;;;;;;;5091697;28;20069;-47
2021/05/15 08:20:08;;;;;;;61.10;39.25;;;;;;;;;;5091718;28;20368;-47
2021/05/15 08:22:34;;;;;;;74.63;48.83;;;;;;;;;;5091417;28;20035;-47
2021/05/15 08:25:00;;;;;;;16.92;10.52;;;;;;;;;;5091580;28;20026;-46
2021/05/15 08:27:26;;;;;;;25.55;16.30;;;;;;;;;;5092533;28;20055;-47
2021/05/15 08:29:53;;;;;;;20.70;9.95;;;;;;;;;;5092545;28;20085;-47
2021/05/15 08:32:19;;;;;;;10.68;6.50;;;;;;;;;;5095063;28;20024;-47
2021/05/15 08:34:46;;;;;;;13.45;5.35;;;;;;;;;;5095627;28;20439;-46
2021/05/15 08:37:12;;;;;;;6.03;3.50;;;;;;;;;;5096455;28;20506;-47
2021/05/15 08:39:38;;;;;;;22.10;14.82;;;;;;;;;;5096248;28;20490;-46
2021/05/15 08:42:04;;;;;;;8.35;5.00;;;;;;;;;;5096204;28;20051;-46
2021/05/15 08:44:30;;;;;;;8.10;4.68;;;;;;;;;;5096238;28;20115;-45
2021/05/15 08:46:57;;;;;;;9.68;6.63;;;;;;;;;;5096268;28;20061;-45
2021/05/15 08:49:23;;;;;;;6.38;4.40;;;;;;;;;;5096026;28;20020;-46
2021/05/15 08:51:52;;;;;;;4.57;3.35;;;;;;;;;;5096014;28;20027;-46
2021/05/15 08:54:20;;;;;;;4.07;2.78;;;;;;;;;;5096067;28;20020;-46
2021/05/15 08:56:48;;;;;;;4.28;3.88;;;;;;;;;;5096044;28;20077;-46
2021/05/15 08:59:14;;;;;;;6.20;4.45;;;;;;;;;;5096079;28;20039;-46
2021/05/15 09:01:44;;;;;;;5.30;4.22;;;;;;;;;;5096026;28;20028;-46
2021/05/15 09:04:10;;;;;;;8.23;4.38;;;;;;;;;;5095962;28;20031;-46
2021/05/15 09:06:39;;;;;;;4.18;3.60;;;;;;;;;;5095983;28;20020;-47
2021/05/15 09:09:06;;;;;;;8.88;4.72;;;;;;;;;;5095623;28;20024;-46
2021/05/15 09:11:32;;;;;;;8.65;6.55;;;;;;;;;;5095559;28;20051;-46
2021/05/15 09:13:58;;;;;;;5.68;4.28;;;;;;;;;;5095704;28;20039;-46
2021/05/15 09:16:24;;;;;;;7.28;4.20;;;;;;;;;;5095763;28;20103;-46
2021/05/15 09:18:51;;;;;;;5.97;4.40;;;;;;;;;;5096186;28;20012;-45
2021/05/15 09:21:18;;;;;;;6.78;5.53;;;;;;;;;;5095672;28;20031;-46
2021/05/15 09:23:46;;;;;;;11.60;4.85;;;;;;;;;;5092876;28;20448;-46
2021/05/15 09:26:13;;;;;;;7.18;4.88;;;;;;;;;;5095579;28;20130;-46
2021/05/15 09:28:40;;;;;;;4.82;4.13;;;;;;;;;;5094141;28;20028;-45
2021/05/15 09:31:40;;;;;;;5.55;4.28;;;;;;;;;;5095670;28;20012;-46
2021/05/15 09:34:07;;;;;;;6.07;4.63;;;;;;;;;;5093012;28;20471;-46
2021/05/15 09:36:38;;;;;;;7.90;5.13;;;;;;;;;;5095196;28;20043;-46
2021/05/15 09:39:06;;;;;;;15.25;11.30;;;;;;;;;;5092653;28;20027;-46
2021/05/15 09:41:35;;;;;;;6.60;5.22;;;;;;;;;;5095055;28;20016;-46
2021/05/15 09:44:02;;;;;;;5.25;4.68;;;;;;;;;;5094965;28;20032;-46
2021/05/15 09:46:31;;;;;;;7.15;5.40;;;;;;;;;;5095164;28;20039;-46
2021/05/15 09:48:57;;;;;;;7.88;5.10;;;;;;;;;;5093854;28;20036;-46
2021/05/15 09:51:23;;;;;;;7.45;4.55;;;;;;;;;;5095335;28;20019;-47
2021/05/15 09:53:50;;;;;;;6.80;4.93;;;;;;;;;;5095005;28;20055;-46
2021/05/15 09:56:29;;;;;;;5.43;4.47;;;;;;;;;;5094912;28;20024;-47
2021/05/15 09:58:56;;;;;;;7.38;5.10;;;;;;;;;;5094112;28;20026;-47
2021/05/15 10:01:22;;;;;;;5.47;4.97;;;;;;;;;;5093362;28;20198;-48
2021/05/15 10:03:48;;;;;;;6.93;5.88;;;;;;;;;;5093611;28;20057;-47
2021/05/15 10:06:16;;;;;;;20.45;14.63;;;;;;;;;;5095116;28;20391;-48
2021/05/15 10:08:43;;;;;;;22.20;15.35;;;;;;;;;;5091843;28;20060;-49
2021/05/15 10:11:10;;;;;;;24.45;16.77;;;;;;;;;;5094289;28;20048;-48
2021/05/15 10:13:42;;;;;;;30.77;21.33;;;;;;;;;;5094475;28;20040;-47
2021/05/15 10:16:08;;;;;;;20.20;13.85;;;;;;;;;;5092719;28;20511;-49
2021/05/15 10:18:35;;;;;;;20.55;13.95;;;;;;;;;;5094657;28;20024;-48
2021/05/15 10:21:02;;;;;;;22.77;15.25;;;;;;;;;;5094826;28;20387;-48
2021/05/15 10:23:36;;;;;;;17.70;11.63;;;;;;;;;;5089649;28;20032;-48
2021/05/15 10:26:25;;;;;;;5.53;3.95;;;;;;;;;;5064114;28;20032;-49
2021/05/15 10:28:58;;;;;;;34.25;19.05;;;;;;;;;;5063489;28;20139;-48
2021/05/15 10:31:35;;;;;;;13.88;7.85;;;;;;;;;;5062369;28;20459;-50
2021/05/15 10:34:01;;;;;;;21.63;14.85;;;;;;;;;;5063872;28;20035;-48
2021/05/15 10:36:27;;;;;;;8.48;6.55;;;;;;;;;;5062264;28;20465;-47
2021/05/15 10:38:55;;;;;;;11.88;8.60;;;;;;;;;;5062223;28;20135;-47
2021/05/15 10:41:23;;;;;;;16.30;11.55;;;;;;;;;;5063651;28;20143;-47
2021/05/15 10:43:50;;;;;;;7.03;5.03;;;;;;;;;;5062125;28;20530;-47
2021/05/15 10:46:22;;;;;;;15.13;10.95;;;;;;;;;;5062244;28;20031;-46
2021/05/15 10:48:55;;;;;;;44.65;26.85;;;;;;;;;;5062020;28;20158;-48
2021/05/15 10:51:31;;;;;;;10.65;5.88;;;;;;;;;;5063150;28;20028;-47
2021/05/15 10:53:58;;;;;;;9.80;7.75;;;;;;;;;;5062415;28;20063;-47
2021/05/15 10:56:31;;;;;;;10.23;5.38;;;;;;;;;;5066847;28;20784;-46
2021/05/15 10:59:20;;;;;;;10.52;7.70;;;;;;;;;;5066008;28;20740;-47
2021/05/15 11:01:57;;;;;;;20.15;13.52;;;;;;;;;;5006590;28;20030;-46
2021/05/15 11:04:24;;;;;;;12.45;7.10;;;;;;;;;;5000344;28;20185;-46
2021/05/15 11:07:10;;;;;;;23.02;16.20;;;;;;;;;;5000410;28;20030;-47
2021/05/15 11:09:37;;;;;;;45.20;28.60;;;;;;;;;;5002453;28;20032;-46
2021/05/15 11:12:11;;;;;;;17.00;11.95;;;;;;;;;;5006109;28;20553;-46
2021/05/15 11:14:42;;;;;;;26.52;17.67;;;;;;;;;;5001607;28;20108;-47
2021/05/15 11:17:11;;;;;;;23.75;12.50;;;;;;;;;;5000887;28;20030;-48
2021/05/15 11:19:38;;;;;;;53.75;28.65;;;;;;;;;;5000131;28;20670;-48
2021/05/15 11:22:05;;;;;;;20.85;11.05;;;;;;;;;;5000251;28;20754;-47
2021/05/15 11:24:31;;;;;;;55.00;28.38;;;;;;;;;;4999913;28;20156;-47
2021/05/15 11:27:07;;;;;;;12.40;8.90;;;;;;;;;;5000130;28;20112;-48
2021/05/15 11:29:38;;;;;;;73.50;45.95;;;;;;;;;;5000078;28;20045;-49
2021/05/15 11:32:05;;;;;;;33.80;22.55;;;;;;;;;;5001320;28;20160;-48
2021/05/15 11:34:31;;;;;;;45.67;28.88;;;;;;;;;;5000038;28;20169;-50
2021/05/15 11:37:01;;;;;;;42.90;24.08;;;;;;;;;;4999898;28;20022;-47
2021/05/15 11:39:28;;;;;;;14.57;9.32;;;;;;;;;;5044621;28;20183;-48
2021/05/15 11:42:07;;;;;;;35.40;20.90;;;;;;;;;;5061259;28;20035;-48
2021/05/15 11:44:35;;;;;;;55.92;33.67;;;;;;;;;;5061061;28;20457;-48
2021/05/15 11:47:02;;;;;;;27.88;10.82;;;;;;;;;;5061295;28;20861;-48
2021/05/15 11:49:30;;;;;;;23.67;11.48;;;;;;;;;;5062406;28;20086;-48
2021/05/15 11:52:07;;;;;;;18.40;6.75;;;;;;;;;;5061158;28;20719;-45
2021/05/15 11:54:36;;;;;;;14.70;9.25;;;;;;;;;;5061998;28;20101;-46
2021/05/15 11:57:03;;;;;;;23.75;12.15;;;;;;;;;;5062380;28;20404;-46
2021/05/15 11:59:30;;;;;;;37.95;18.08;;;;;;;;;;5061104;28;20029;-47
2021/05/15 12:01:56;;;;;;;47.80;24.42;;;;;;;;;;5060989;28;20020;-47
2021/05/15 12:04:33;;;;;;;31.58;18.60;;;;;;;;;;5061432;28;20029;-46
2021/05/15 12:07:03;;;;;;;9.82;6.35;;;;;;;;;;5063066;28;20394;-46
2021/05/15 12:09:30;;;;;;;14.73;7.17;;;;;;;;;;5064931;28;20013;-46
2021/05/15 12:11:58;;;;;;;23.42;11.15;;;;;;;;;;5064785;28;21127;-47
2021/05/15 12:14:27;;;;;;;19.00;10.60;;;;;;;;;;5066850;28;20149;-48
2021/05/15 12:16:53;;;;;;;15.43;8.68;;;;;;;;;;5066182;28;20488;-46
2021/05/15 12:19:29;;;;;;;3.30;2.90;;;;;;;;;;5065158;28;20024;-48
2021/05/15 12:21:55;;;;;;;2.45;1.70;;;;;;;;;;5066285;28;20768;-47
2021/05/15 12:24:22;;;;;;;3.50;1.95;;;;;;;;;;5064407;28;20124;-48
2021/05/15 12:26:50;;;;;;;17.73;8.45;;;;;;;;;;5064900;28;20099;-46
2021/05/15 12:29:16;;;;;;;25.38;14.98;;;;;;;;;;5065057;28;20032;-47
2021/05/15 12:31:43;;;;;;;47.75;25.05;;;;;;;;;;5064756;28;20361;-47
2021/05/15 12:34:10;;;;;;;72.03;50.20;;;;;;;;;;5064761;28;20466;-47
2021/05/15 12:36:37;;;;;;;70.00;45.90;;;;;;;;;;5064646;28;20111;-47
2021/05/15 12:39:10;;;;;;;34.60;21.75;;;;;;;;;;5065258;28;20020;-47
2021/05/15 12:41:37;;;;;;;52.92;35.30;;;;;;;;;;5064631;28;20059;-47
2021/05/15 12:44:07;;;;;;;24.95;16.25;;;;;;;;;;5067357;28;20029;-47
2021/05/15 12:46:35;;;;;;;471.13;281.00;;;;;;;;;;5065478;28;20570;-49
2021/05/15 12:49:02;;;;;;;60.65;39.25;;;;;;;;;;5064812;28;20112;-47
2021/05/15 12:51:30;;;;;;;66.82;45.53;;;;;;;;;;5064527;28;20541;-48
2021/05/15 12:53:56;;;;;;;40.72;29.35;;;;;;;;;;5063971;28;20116;-45
2021/05/15 12:56:29;;;;;;;54.92;33.70;;;;;;;;;;5064377;28;20481;-46
2021/05/15 12:58:55;;;;;;;29.17;20.98;;;;;;;;;;5065416;28;20784;-48
2021/05/15 13:01:22;;;;;;;24.73;15.30;;;;;;;;;;5064151;28;20272;-47
2021/05/15 13:03:50;;;;;;;9.70;6.28;;;;;;;;;;5063953;28;20032;-48
2021/05/15 13:06:19;;;;;;;45.50;28.73;;;;;;;;;;5064257;28;20044;-48
2021/05/15 13:08:52;;;;;;;52.50;34.53;;;;;;;;;;5063870;28;20577;-48
2021/05/15 13:11:18;;;;;;;11.07;6.50;;;;;;;;;;5063652;28;20037;-47
2021/05/15 13:13:48;;;;;;;66.13;40.28;;;;;;;;;;5065608;28;20384;-47
2021/05/15 13:16:15;;;;;;;12.90;7.57;;;;;;;;;;5063908;28;20055;-48
2021/05/15 13:18:41;;;;;;;72.18;43.80;;;;;;;;;;5063562;28;20024;-47
2021/05/15 13:21:08;;;;;;;33.58;20.08;;;;;;;;;;5063694;28;20029;-47
2021/05/15 13:23:35;;;;;;;19.23;13.50;;;;;;;;;;5063352;28;20097;-48
2021/05/15 13:26:01;;;;;;;21.27;12.55;;;;;;;;;;5063785;28;20025;-48
2021/05/15 13:28:27;;;;;;;22.45;11.38;;;;;;;;;;5063464;28;20447;-49
2021/05/15 13:30:53;;;;;;;28.65;13.20;;;;;;;;;;5064566;28;20395;-48
2021/05/15 13:33:19;;;;;;;37.20;14.38;;;;;;;;;;5063454;28;20062;-49
2021/05/15 13:35:45;;;;;;;11.90;7.28;;;;;;;;;;5063333;28;20441;-48
2021/05/15 13:38:11;;;;;;;21.63;10.18;;;;;;;;;;5063224;28;20025;-49
2021/05/15 13:40:39;;;;;;;5.38;2.80;;;;;;;;;;5063174;28;20172;-49
2021/05/15 13:43:05;;;;;;;23.75;9.02;;;;;;;;;;5063310;28;20116;-48
2021/05/15 13:45:31;;;;;;;11.52;5.30;;;;;;;;;;5063057;28;20084;-49
2021/05/15 13:47:57;;;;;;;21.40;9.45;;;;;;;;;;5063061;28;20020;-48
2021/05/15 13:50:25;;;;;;;25.02;14.23;;;;;;;;;;5064399;28;20441;-48
2021/05/15 13:52:52;;;;;;;20.00;11.10;;;;;;;;;;5062921;28;20229;-48
2021/05/15 13:55:19;;;;;;;37.88;20.20;;;;;;;;;;5062955;28;20038;-49
2021/05/15 13:57:45;;;;;;;15.07;7.88;;;;;;;;;;5062979;28;20151;-48
2021/05/15 14:00:12;;;;;;;13.90;5.90;;;;;;;;;;5062843;28;20035;-48
2021/05/15 14:02:39;;;;;;;20.85;9.18;;;;;;;;;;5063099;28;20020;-48
2021/05/15 14:05:09;;;;;;;12.90;5.50;;;;;;;;;;5062490;28;20037;-49
2021/05/15 14:07:37;;;;;;;25.52;13.20;;;;;;;;;;5062781;28;20013;-49
2021/05/15 14:10:05;;;;;;;12.60;7.15;;;;;;;;;;5062374;28;20028;-48
2021/05/15 14:12:31;;;;;;;10.68;5.80;;;;;;;;;;5062413;28;20048;-48
2021/05/15 14:14:59;;;;;;;6.38;2.55;;;;;;;;;;5062558;28;20709;-48
2021/05/15 14:17:26;;;;;;;13.30;5.80;;;;;;;;;;5062668;28;20517;-48
2021/05/15 14:19:52;;;;;;;9.25;4.75;;;;;;;;;;5062225;28;20063;-49
2021/05/15 14:22:20;;;;;;;7.65;3.53;;;;;;;;;;5062563;28;20084;-49
2021/05/15 14:24:47;;;;;;;7.47;3.53;;;;;;;;;;5063442;28;20055;-49
2021/05/15 14:27:13;;;;;;;16.35;8.35;;;;;;;;;;5062301;28;20051;-49
2021/05/15 14:29:39;;;;;;;11.95;7.10;;;;;;;;;;5061554;28;20480;-50
2021/05/15 14:32:07;;;;;;;11.07;6.50;;;;;;;;;;5062099;28;20056;-49
2021/05/15 14:34:33;;;;;;;15.88;4.65;;;;;;;;;;5062317;28;20383;-49
2021/05/15 14:36:59;;;;;;;3.80;2.88;;;;;;;;;;5062465;28;20349;-49
2021/05/15 14:39:26;;;;;;;7.00;3.55;;;;;;;;;;5061860;28;20123;-49